sensor_id;sensor_type;location;lat;lon;timestamp;P1;durP1;ratioP1;P2;durP2;ratioP2
10381;SDS011;11635;53.636;10.120;2023-05-19T05:23:26;9.55;;;4.47;;
10381;SDS011;11635;53.636;10.120;2023-05-19T05:25:53;11.77;;;4.60;;
10381;SDS011;11635;53.636;10.120;2023-05-19T05:28:19;6.00;;;3.97;;
10381;SDS011;11635;53.636;10.120;2023-05-19T05:30:46;6.55;;;3.90;;
10381;SDS011;11635;53.636;10.120;2023-05-19T05:33:13;8.52;;;4.15;;
10381;SDS011;11635;53.636;10.120;2023-05-19T05:35:40;7.05;;;4.30;;
10381;SDS011;11635;53.636;10.120;2023-05-19T05:38:06;9.77;;;4.60;;
10381;SDS011;11635;53.636;10.120;2023-05-19T05:40:34;10.10;;;4.35;;
10381;SDS011;11635;53.636;10.120;2023-05-19T05:43:00;10.77;;;4.55;;
10381;SDS011;11635;53.636;10.120;2023-05-19T05:45:26;7.40;;;3.80;;
10381;SDS011;11635;53.636;10.120;2023-05-19T05:47:53;9.75;;;4.13;;
10381;SDS011;11635;53.636;10.120;2023-05-19T05:50:20;8.65;;;4.25;;
10381;SDS011;11635;53.636;10.120;2023-05-19T05:52:46;10.35;;;4.32;;
10381;SDS011;11635;53.636;10.120;2023-05-19T05:55:13;6.65;;;3.60;;
10381;SDS011;11635;53.636;10.120;2023-05-19T05:57:42;6.50;;;3.83;;
10381;SDS011;11635;53.636;10.120;2023-05-19T06:00:09;7.28;;;3.88;;
10381;SDS011;11635;53.636;10.120;2023-05-19T06:02:39;8.23;;;4.25;;
10381;SDS011;11635;53.636;10.120;2023-05-19T06:05:07;7.25;;;3.55;;
10381;SDS011;11635;53.636;10.120;2023-05-19T06:07:36;5.45;;;3.80;;
10381;SDS011;11635;53.636;10.120;2023-05-19T06:10:02;8.35;;;4.45;;
10381;SDS011;11635;53.636;10.120;2023-05-19T06:12:29;10.43;;;4.03;;
10381;SDS011;11635;53.636;10.120;2023-05-19T06:14:57;9.70;;;4.25;;
10381;SDS011;11635;53.636;10.120;2023-05-19T06:17:23;8.75;;;3.80;;
10381;SDS011;11635;53.636;10.120;2023-05-19T06:19:49;6.10;;;3.90;;
10381;SDS011;11635;53.636;10.120;2023-05-19T06:22:16;8.70;;;3.53;;
10381;SDS011;11635;53.636;10.120;2023-05-19T06:24:42;9.73;;;4.10;;
10381;SDS011;11635;53.636;10.120;2023-05-19T06:27:09;10.75;;;3.85;;
10381;SDS011;11635;53.636;10.120;2023-05-19T06:29:35;7.03;;;4.10;;
10381;SDS011;11635;53.636;10.120;2023-05-19T06:32:03;8.40;;;3.47;;
10381;SDS011;11635;53.636;10.120;2023-05-19T06:34:29;6.45;;;3.60;;
10381;SDS011;11635;53.636;10.120;2023-05-19T06:36:56;9.20;;;3.35;;
10381;SDS011;11635;53.636;10.120;2023-05-19T06:39:22;6.35;;;3.63;;
10381;SDS011;11635;53.636;10.120;2023-05-19T06:41:49;5.60;;;3.63;;
10381;SDS011;11635;53.636;10.120;2023-05-19T06:44:15;8.80;;;2.92;;
10381;SDS011;11635;53.636;10.120;2023-05-19T06:46:41;7.53;;;2.88;;
10381;SDS011;11635;53.636;10.120;2023-05-19T06:49:09;6.93;;;2.78;;
10381;SDS011;11635;53.636;10.120;2023-05-19T06:51:36;10.88;;;3.53;;
10381;SDS011;11635;53.636;10.120;2023-05-19T06:54:02;9.07;;;3.35;;
10381;SDS011;11635;53.636;10.120;2023-05-19T06:56:28;9.63;;;2.90;;
10381;SDS011;11635;53.636;10.120;2023-05-19T06:58:55;5.97;;;2.75;;
10381;SDS011;11635;53.636;10.120;2023-05-19T07:01:21;8.57;;;2.95;;
10381;SDS011;11635;53.636;10.120;2023-05-19T07:03:47;7.18;;;3.08;;
10381;SDS011;11635;53.636;10.120;2023-05-19T07:06:15;6.15;;;2.50;;
10381;SDS011;11635;53.636;10.120;2023-05-19T07:08:42;6.07;;;2.83;;
10381;SDS011;11635;53.636;10.120;2023-05-19T07:11:08;8.30;;;2.70;;
